createdAt,value
2022-09-05T00:00:00.237Z,101620
2022-09-05T00:05:00.206Z,101620
2022-09-05T00:10:00.193Z,101640
2022-09-05T00:15:17.358Z,101620
2022-09-05T00:24:19.486Z,101630
2022-09-05T00:25:21.395Z,101640
2022-09-05T00:31:06.765Z,101620
2022-09-05T00:35:00.203Z,101650
2022-09-05T00:40:16.125Z,101630
2022-09-05T00:45:00.181Z,101620
2022-09-05T00:50:00.254Z,101630
2022-09-05T00:55:00.179Z,101610
2022-09-05T01:00:00.263Z,101620
2022-09-05T01:05:00.214Z,101620
2022-09-05T01:10:00.219Z,101640
2022-09-05T01:15:00.209Z,101630
2022-09-05T01:20:04.875Z,101630
2022-09-05T01:25:00.224Z,101620
2022-09-05T01:30:00.246Z,101630
2022-09-05T01:35:00.212Z,101620
2022-09-05T01:40:11.851Z,101610
2022-09-05T01:45:00.204Z,101620
2022-09-05T01:50:01.084Z,101630
2022-09-05T01:55:00.225Z,101620
2022-09-05T02:00:00.207Z,101610
2022-09-05T02:05:00.174Z,101630
2022-09-05T02:10:00.204Z,101630
2022-09-05T02:15:00.172Z,101630
2022-09-05T02:20:00.172Z,101620
2022-09-05T02:25:18.026Z,101620
2022-09-05T02:30:00.190Z,101630
2022-09-05T02:35:00.184Z,101620
2022-09-05T02:45:03.765Z,101640
2022-09-05T02:45:24.207Z,101610
2022-09-05T02:53:54.117Z,101650
2022-09-05T02:57:42.131Z,101620
2022-09-05T03:00:00.213Z,101630
2022-09-05T03:05:04.569Z,101610
2022-09-05T03:10:00.284Z,101610
2022-09-05T03:15:00.198Z,101610
2022-09-05T03:20:00.190Z,101640
2022-09-05T03:25:00.166Z,101600
2022-09-05T03:30:00.201Z,101620
2022-09-05T03:35:00.181Z,101620
2022-09-05T03:40:15.244Z,101640
2022-09-05T03:45:00.189Z,101630
2022-09-05T03:51:55.428Z,101640
2022-09-05T03:57:22.672Z,101650
2022-09-05T04:00:00.196Z,101630
2022-09-05T04:08:14.032Z,101640
2022-09-05T04:10:00.291Z,101640
2022-09-05T04:15:00.241Z,101670
2022-09-05T04:20:00.210Z,101660
2022-09-05T04:25:00.185Z,101650
2022-09-05T04:30:00.216Z,101640
2022-09-05T04:35:00.201Z,101640
2022-09-05T04:40:00.303Z,101650
2022-09-05T04:45:00.191Z,101650
2022-09-05T04:50:00.246Z,101650
2022-09-05T04:55:00.154Z,101660
2022-09-05T05:02:12.757Z,101660
2022-09-05T05:06:09.939Z,101660
2022-09-05T05:10:47.604Z,101670
2022-09-05T05:18:09.412Z,101670
2022-09-05T05:20:42.072Z,101670
2022-09-05T05:25:00.188Z,101670
2022-09-05T05:30:00.249Z,101660
2022-09-05T05:35:00.162Z,101680
2022-09-05T05:40:00.354Z,101670
2022-09-05T05:45:00.186Z,101650
2022-09-05T05:50:00.200Z,101650
2022-09-05T05:55:27.113Z,101680
2022-09-05T06:00:00.389Z,101670
2022-09-05T06:05:03.803Z,101650
2022-09-05T06:14:51.067Z,101670
2022-09-05T06:15:09.009Z,101670
2022-09-05T06:22:00.589Z,101680
2022-09-05T06:25:16.195Z,101670
2022-09-05T06:30:00.191Z,101680
2022-09-05T06:35:00.246Z,101680
2022-09-05T06:40:00.358Z,101680
2022-09-05T06:45:00.323Z,101670
2022-09-05T06:50:00.191Z,101680
2022-09-05T06:55:00.371Z,101690
2022-09-05T07:00:00.209Z,101680
2022-09-05T07:05:37.878Z,101700
2022-09-05T07:10:00.188Z,101700
2022-09-05T07:15:08.496Z,101690
2022-09-05T07:20:00.207Z,101720
2022-09-05T07:25:00.174Z,101690
2022-09-05T07:30:01.110Z,101700
2022-09-05T07:35:00.179Z,101720
2022-09-05T07:40:04.053Z,101710
2022-09-05T07:45:00.186Z,101710
2022-09-05T07:51:00.737Z,101680
2022-09-05T07:57:00.911Z,101690
2022-09-05T08:00:00.206Z,101710
2022-09-05T08:05:00.270Z,101690
2022-09-05T08:10:06.395Z,101700
2022-09-05T08:15:00.190Z,101690
2022-09-05T08:20:08.487Z,101690
2022-09-05T08:25:00.193Z,101730
2022-09-05T08:30:25.783Z,101690
2022-09-05T08:35:00.186Z,101730
2022-09-05T08:40:11.469Z,101680
2022-09-05T08:46:43.899Z,101700
2022-09-05T08:50:00.205Z,101700
2022-09-05T08:55:06.425Z,101710
2022-09-05T09:00:18.973Z,101690
2022-09-05T09:05:02.098Z,101690
2022-09-05T09:10:00.183Z,101690
2022-09-05T09:15:00.175Z,101690
2022-09-05T09:20:00.179Z,101700
2022-09-05T09:25:14.617Z,101670
2022-09-05T09:30:00.184Z,101650
2022-09-05T09:35:00.176Z,101660
2022-09-05T09:40:00.267Z,101670
2022-09-05T09:45:00.151Z,101650
2022-09-05T09:50:00.173Z,101630
2022-09-05T09:55:00.181Z,101650
2022-09-05T10:00:00.206Z,101660
2022-09-05T10:10:40.167Z,101650
2022-09-05T10:10:48.839Z,101640
2022-09-05T10:15:00.398Z,101640
2022-09-05T10:20:10.333Z,101640
2022-09-05T10:25:19.298Z,101610
2022-09-05T10:30:00.197Z,101610
2022-09-05T10:35:14.875Z,101620
2022-09-05T10:40:00.339Z,101590
2022-09-05T10:45:00.181Z,101610
2022-09-05T10:50:00.303Z,101620
2022-09-05T10:55:14.341Z,101610
2022-09-05T11:02:18.631Z,101580
2022-09-05T11:05:00.234Z,101600
2022-09-05T11:10:00.198Z,101570
2022-09-05T11:15:00.181Z,101590
2022-09-05T11:20:00.156Z,101570
2022-09-05T11:25:00.215Z,101560
2022-09-05T11:30:00.182Z,101570
2022-09-05T11:39:53.546Z,101560
2022-09-05T11:40:28.905Z,101560
2022-09-05T11:45:00.200Z,101570
2022-09-05T11:50:00.194Z,101590
2022-09-05T11:55:00.183Z,101570
2022-09-05T12:00:31.636Z,101590
2022-09-05T12:05:50.667Z,101570
2022-09-05T12:10:00.221Z,101540
2022-09-05T12:15:00.162Z,101550
2022-09-05T12:20:00.186Z,101540
2022-09-05T12:25:25.023Z,101570
2022-09-05T12:30:01.058Z,101550
2022-09-05T12:36:07.820Z,101550
2022-09-05T12:40:57.774Z,101560
2022-09-05T12:45:01.019Z,101550
2022-09-05T12:50:03.412Z,101540
2022-09-05T12:55:00.191Z,101550
2022-09-05T13:03:06.576Z,101540
2022-09-05T13:05:01.961Z,101540
2022-09-05T13:13:18.598Z,101520
2022-09-05T13:15:12.405Z,101520
2022-09-05T13:20:00.230Z,101530
2022-09-05T13:25:00.177Z,101530
2022-09-05T13:31:34.854Z,101530
2022-09-05T13:38:17.353Z,101520
2022-09-05T13:40:00.444Z,101520
2022-09-05T13:45:00.215Z,101510
2022-09-05T13:50:00.190Z,101500
2022-09-05T13:55:00.278Z,101500
2022-09-05T14:00:00.246Z,101490
2022-09-05T14:05:13.444Z,101490
2022-09-05T14:10:00.204Z,101520
2022-09-05T14:15:11.268Z,101490
2022-09-05T14:20:00.213Z,101510
2022-09-05T14:25:00.399Z,101500
2022-09-05T14:30:19.664Z,101470
2022-09-05T14:37:54.126Z,101480
2022-09-05T14:40:00.263Z,101480
2022-09-05T14:45:00.222Z,101480
2022-09-05T14:50:00.213Z,101460
2022-09-05T14:55:21.834Z,101440
2022-09-05T15:02:41.672Z,101450
2022-09-05T15:05:00.234Z,101440
2022-09-05T15:12:20.312Z,101450
2022-09-05T15:15:00.183Z,101450
2022-09-05T15:20:06.588Z,101450
2022-09-05T15:25:00.201Z,101440
2022-09-05T15:30:00.206Z,101470
2022-09-05T15:35:00.276Z,101450
2022-09-05T15:40:00.468Z,101450
2022-09-05T15:45:09.866Z,101460
2022-09-05T15:50:00.198Z,101460
2022-09-05T15:55:00.215Z,101410
2022-09-05T16:00:00.232Z,101440
2022-09-05T16:10:29.905Z,101430
2022-09-05T16:10:48.950Z,101420
2022-09-05T16:17:40.459Z,101420
2022-09-05T16:23:34.732Z,101410
2022-09-05T16:25:00.675Z,101410
2022-09-05T16:30:00.313Z,101410
2022-09-05T16:35:00.191Z,101390
2022-09-05T16:40:00.317Z,101390
2022-09-05T16:45:00.209Z,101380
2022-09-05T16:50:00.194Z,101410
2022-09-05T16:55:00.204Z,101400
2022-09-05T17:00:00.239Z,101390
2022-09-05T17:05:04.593Z,101380
2022-09-05T17:10:00.192Z,101380
2022-09-05T17:15:00.188Z,101380
2022-09-05T17:20:07.473Z,101380
2022-09-05T17:29:18.726Z,101370
2022-09-05T17:31:26.538Z,101380
2022-09-05T17:35:16.550Z,101350
2022-09-05T17:40:00.309Z,101350
2022-09-05T17:45:00.209Z,101390
2022-09-05T17:50:00.217Z,101370
2022-09-05T17:55:00.203Z,101380
2022-09-05T18:00:00.227Z,101380
2022-09-05T18:05:00.197Z,101380
2022-09-05T18:10:12.324Z,101380
2022-09-05T18:15:04.856Z,101360
2022-09-05T18:20:00.215Z,101360
2022-09-05T18:25:13.834Z,101360
2022-09-05T18:30:00.211Z,101370
2022-09-05T18:35:00.192Z,101390
2022-09-05T18:40:00.306Z,101390
2022-09-05T18:45:00.227Z,101390
2022-09-05T18:50:24.834Z,101390
2022-09-05T18:56:10.574Z,101410
2022-09-05T19:00:00.279Z,101400
2022-09-05T19:05:00.175Z,101390
2022-09-05T19:10:00.189Z,101380
2022-09-05T19:15:00.178Z,101380
2022-09-05T19:20:11.273Z,101380
2022-09-05T19:25:03.862Z,101370
2022-09-05T19:36:45.640Z,101410
2022-09-05T19:36:57.479Z,101390
2022-09-05T19:43:27.047Z,101400
2022-09-05T19:47:36.396Z,101400
2022-09-05T19:50:00.176Z,101390
2022-09-05T19:55:00.199Z,101380
2022-09-05T20:00:00.281Z,101400
2022-09-05T20:05:00.175Z,101370
2022-09-05T20:10:00.193Z,101380
2022-09-05T20:15:00.161Z,101390
2022-09-05T20:20:00.193Z,101400
2022-09-05T20:25:00.165Z,101380
2022-09-05T20:30:00.284Z,101390
2022-09-05T20:36:59.495Z,101410
2022-09-05T20:43:16.873Z,101390
2022-09-05T20:45:00.178Z,101370
2022-09-05T20:54:13.411Z,101370
2022-09-05T20:55:00.283Z,101370
2022-09-05T21:00:00.282Z,101400
2022-09-05T21:05:06.614Z,101400
2022-09-05T21:10:00.202Z,101410
2022-09-05T21:15:00.187Z,101410
2022-09-05T21:20:00.190Z,101400
2022-09-05T21:25:00.157Z,101430
2022-09-05T21:30:00.191Z,101420
2022-09-05T21:35:00.236Z,101400
2022-09-05T21:40:01.161Z,101430
2022-09-05T21:47:39.039Z,101420
2022-09-05T21:50:00.205Z,101420
2022-09-05T21:59:20.936Z,101410
2022-09-05T22:00:07.105Z,101420
2022-09-05T22:05:03.026Z,101410
2022-09-05T22:10:00.188Z,101390
2022-09-05T22:15:26.474Z,101400
2022-09-05T22:20:00.166Z,101400
2022-09-05T22:25:00.201Z,101410
2022-09-05T22:30:00.188Z,101420
2022-09-05T22:35:00.177Z,101410
2022-09-05T22:40:00.268Z,101420
2022-09-05T22:45:00.190Z,101410
2022-09-05T22:50:00.195Z,101410
2022-09-05T22:55:00.173Z,101420
2022-09-05T23:00:00.211Z,101390
2022-09-05T23:05:00.181Z,101390
2022-09-05T23:10:00.166Z,101380
2022-09-05T23:15:00.180Z,101410
2022-09-05T23:20:00.190Z,101380
2022-09-05T23:25:00.170Z,101380
2022-09-05T23:30:00.186Z,101390
2022-09-05T23:35:00.174Z,101390
2022-09-05T23:40:00.368Z,101380
2022-09-05T23:45:00.181Z,101360
2022-09-05T23:50:00.181Z,101350
2022-09-05T23:55:00.199Z,101380
